createdAt,value
2023-04-03T00:01:27.910Z,56034.81
2023-04-03T00:03:56.759Z,56367.09
2023-04-03T00:06:25.990Z,56641.69
2023-04-03T00:08:54.955Z,56390.97
2023-04-03T00:11:24.716Z,56402.91
2023-04-03T00:13:53.811Z,56307.41
2023-04-03T00:16:22.146Z,56470.56
2023-04-03T00:18:50.733Z,56460.63
2023-04-03T00:21:19.162Z,56474.53
2023-04-03T00:23:47.768Z,56426.78
2023-04-03T00:26:16.075Z,56510.38
2023-04-03T00:28:46.320Z,56241.75
2023-04-03T00:31:16.929Z,56160.19
2023-04-03T00:33:45.963Z,56243.75
2023-04-03T00:36:15.072Z,56315.38
2023-04-03T00:38:43.611Z,56166.16
2023-04-03T00:41:12.065Z,56245.72
2023-04-03T00:43:40.870Z,56269.59
2023-04-03T00:46:11.271Z,56406.91
2023-04-03T00:48:42.869Z,56486.50
2023-04-03T00:51:15.620Z,56383.03
2023-04-03T00:53:48.192Z,56434.75
2023-04-03T00:56:19.986Z,56387.00
2023-04-03T00:58:56.355Z,56325.31
2023-04-03T01:01:28.134Z,56428.78
2023-04-03T01:03:57.181Z,56585.97
2023-04-03T01:06:32.073Z,56633.75
2023-04-03T01:09:06.942Z,56593.94
2023-04-03T01:11:35.463Z,56496.44
2023-04-03T01:14:04.258Z,56617.81
2023-04-03T01:16:34.235Z,56534.25
2023-04-03T01:19:03.592Z,56562.09
2023-04-03T01:21:58.763Z,56524.28
2023-04-03T01:24:35.235Z,56528.28
2023-04-03T01:27:09.886Z,56597.91
2023-04-03T01:29:39.719Z,56800.91
2023-04-03T01:32:09.752Z,56936.22
2023-04-03T01:34:38.712Z,56705.38
2023-04-03T01:37:07.750Z,56771.03
2023-04-03T01:39:36.320Z,56725.28
2023-04-03T01:42:05.488Z,56723.28
2023-04-03T01:44:38.471Z,56860.59
2023-04-03T01:47:09.637Z,56733.22
2023-04-03T01:49:39.243Z,56842.69
2023-04-03T01:52:08.329Z,56703.38
2023-04-03T01:54:36.736Z,56705.38
2023-04-03T01:57:05.613Z,56669.56
2023-04-03T01:59:34.675Z,56729.25
2023-04-03T02:02:03.484Z,56745.16
2023-04-03T02:04:33.301Z,56983.97
2023-04-03T02:07:01.818Z,56745.16
2023-04-03T02:09:30.234Z,56757.13
2023-04-03T02:11:58.524Z,56556.13
2023-04-03T02:14:28.722Z,56582.00
2023-04-03T02:16:57.118Z,56683.47
2023-04-03T02:19:25.860Z,56643.69
2023-04-03T02:21:55.509Z,56645.69
2023-04-03T02:24:24.299Z,57007.84
2023-04-03T02:26:52.813Z,57091.44
2023-04-03T02:29:21.673Z,56948.16
2023-04-03T02:31:50.170Z,57035.72
2023-04-03T02:34:18.753Z,56960.09
2023-04-03T02:36:48.282Z,56920.28
2023-04-03T02:39:19.419Z,56824.78
2023-04-03T02:41:48.005Z,56478.53
2023-04-03T02:44:21.666Z,56641.69
2023-04-03T02:46:50.050Z,56816.81
2023-04-03T02:49:19.499Z,57053.63
2023-04-03T02:51:48.610Z,57009.84
2023-04-03T02:54:17.219Z,57081.50
2023-04-03T02:56:52.069Z,57296.44
2023-04-03T02:59:20.884Z,57340.22
2023-04-03T03:01:49.976Z,57368.09
2023-04-03T03:04:18.370Z,57238.72
2023-04-03T03:06:47.499Z,57461.63
2023-04-03T03:09:16.435Z,57399.94
2023-04-03T03:11:44.800Z,57358.13
2023-04-03T03:14:14.549Z,57254.63
2023-04-03T03:16:42.907Z,57334.25
2023-04-03T03:19:11.585Z,57585.03
2023-04-03T03:21:40.130Z,57397.94
2023-04-03T03:24:09.156Z,57071.53
2023-04-03T03:26:38.122Z,57039.69
2023-04-03T03:29:06.516Z,56812.84
2023-04-03T03:31:36.653Z,56878.50
2023-04-03T03:34:05.131Z,56773.03
2023-04-03T03:36:33.896Z,56685.47
2023-04-03T03:39:02.967Z,56591.94
2023-04-03T03:41:32.110Z,56603.88
2023-04-03T03:44:00.566Z,56480.53
2023-04-03T03:46:31.420Z,56311.38
2023-04-03T03:49:01.657Z,56329.28
2023-04-03T03:51:30.388Z,56357.16
2023-04-03T03:53:59.888Z,56261.66
2023-04-03T03:56:28.497Z,56267.63
2023-04-03T03:58:57.677Z,56287.50
2023-04-03T04:01:26.740Z,56197.97
2023-04-03T04:03:56.057Z,56128.34
2023-04-03T04:06:30.472Z,56074.63
2023-04-03T04:09:02.914Z,56110.44
2023-04-03T04:11:33.481Z,56070.66
2023-04-03T04:14:02.644Z,55993.06
2023-04-03T04:16:32.303Z,56010.97
2023-04-03T04:19:07.680Z,55955.25
2023-04-03T04:21:40.318Z,55917.44
2023-04-03T04:24:10.052Z,55935.34
2023-04-03T04:26:39.363Z,55881.63
2023-04-03T04:29:10.860Z,55877.66
2023-04-03T04:31:39.287Z,55863.72
2023-04-03T04:34:07.930Z,55857.75
2023-04-03T04:36:39.879Z,55869.69
2023-04-03T04:39:09.235Z,55843.84
2023-04-03T04:41:37.813Z,55911.47
2023-04-03T04:44:07.943Z,55937.34
2023-04-03T04:46:37.352Z,55873.69
2023-04-03T04:49:06.817Z,55885.63
2023-04-03T04:51:48.391Z,55758.28
2023-04-03T04:54:22.839Z,55728.44
2023-04-03T04:56:52.097Z,55766.25
2023-04-03T04:59:21.969Z,55714.53
2023-04-03T05:01:51.254Z,55762.28
2023-04-03T05:04:20.296Z,55728.44
2023-04-03T05:06:52.929Z,55728.44
2023-04-03T05:09:27.373Z,55617.06
2023-04-03T05:11:57.340Z,55684.69
2023-04-03T05:14:29.079Z,55662.81
2023-04-03T05:17:02.243Z,55682.69
2023-04-03T05:19:33.339Z,55642.91
2023-04-03T05:22:02.789Z,55678.72
2023-04-03T05:24:33.250Z,55674.75
2023-04-03T05:27:02.306Z,55700.59
2023-04-03T05:29:32.512Z,55694.63
2023-04-03T05:32:02.575Z,55710.56
2023-04-03T05:34:31.171Z,55662.81
2023-04-03T05:36:59.824Z,55654.84
2023-04-03T05:39:30.177Z,55688.66
2023-04-03T05:42:00.288Z,55690.66
2023-04-03T05:44:29.468Z,55710.56
2023-04-03T05:46:57.868Z,55738.41
2023-04-03T05:49:26.988Z,55816.00
2023-04-03T05:51:55.637Z,55827.91
2023-04-03T05:54:29.302Z,55758.28
2023-04-03T05:57:15.317Z,55812.00
2023-04-03T05:59:44.342Z,55847.81
2023-04-03T06:02:15.133Z,55881.63
2023-04-03T06:04:43.945Z,55839.84
2023-04-03T06:07:16.570Z,55845.81
2023-04-03T06:09:45.417Z,55800.06
2023-04-03T06:12:15.899Z,55798.09
2023-04-03T06:14:44.620Z,55766.25
2023-04-03T06:17:13.438Z,55810.03
2023-04-03T06:19:41.958Z,55772.22
2023-04-03T06:22:10.385Z,55726.47
2023-04-03T06:24:38.984Z,55712.53
2023-04-03T06:27:07.872Z,55722.47
2023-04-03T06:29:38.237Z,55760.28
2023-04-03T06:32:07.228Z,55684.69
2023-04-03T06:34:36.429Z,55716.50
2023-04-03T06:37:04.872Z,55579.25
2023-04-03T06:39:33.629Z,55686.69
2023-04-03T06:42:01.907Z,55730.44
2023-04-03T06:44:39.811Z,55557.38
2023-04-03T06:47:09.664Z,55483.78
2023-04-03T06:49:38.660Z,55428.06
2023-04-03T06:52:10.649Z,55436.03
2023-04-03T06:54:39.064Z,55463.88
2023-04-03T06:57:07.827Z,55503.66
2023-04-03T06:59:37.732Z,55547.44
2023-04-03T07:02:08.296Z,55336.56
2023-04-03T07:04:37.424Z,55348.50
2023-04-03T07:07:05.929Z,55416.13
2023-04-03T07:09:34.324Z,55471.84
2023-04-03T07:12:02.961Z,55330.59
2023-04-03T07:14:31.542Z,55292.81
2023-04-03T07:16:59.951Z,55328.63
2023-04-03T07:19:30.037Z,55340.56
2023-04-03T07:21:58.472Z,55233.13
2023-04-03T07:24:27.265Z,55296.78
2023-04-03T07:26:55.733Z,55260.97
2023-04-03T07:29:24.305Z,55093.91
2023-04-03T07:31:53.139Z,55159.53
2023-04-03T07:34:21.710Z,54978.53
2023-04-03T07:36:51.526Z,54867.16
2023-04-03T07:39:20.319Z,55010.38
2023-04-03T07:41:48.837Z,55016.34
2023-04-03T07:44:17.324Z,54857.22
2023-04-03T07:46:45.767Z,54841.31
2023-04-03T07:49:14.147Z,54895.00
2023-04-03T07:51:42.787Z,54831.38
2023-04-03T07:54:12.809Z,54908.94
2023-04-03T07:56:41.206Z,54847.28
2023-04-03T07:59:09.574Z,54837.34
2023-04-03T08:01:38.017Z,54825.41
2023-04-03T08:04:07.854Z,54712.03
2023-04-03T08:06:46.015Z,54743.84
2023-04-03T08:09:17.887Z,54660.31
2023-04-03T08:11:46.964Z,54672.25
2023-04-03T08:14:19.570Z,54708.06
2023-04-03T08:16:49.402Z,54680.22
2023-04-03T08:19:26.225Z,54580.78
2023-04-03T08:21:56.394Z,54548.97
2023-04-03T08:24:28.691Z,54535.03
2023-04-03T08:26:57.806Z,54558.91
2023-04-03T08:29:26.809Z,54473.41
2023-04-03T08:31:55.803Z,54499.25
2023-04-03T08:34:24.869Z,54487.31
2023-04-03T08:36:53.388Z,54465.44
2023-04-03T08:39:21.857Z,54417.72
2023-04-03T08:41:52.216Z,54419.69
2023-04-03T08:44:27.729Z,54346.13
2023-04-03T08:47:17.573Z,54274.53
2023-04-03T08:49:52.478Z,54375.94
2023-04-03T08:52:25.298Z,54322.25
2023-04-03T08:54:57.370Z,54294.41
2023-04-03T08:57:33.316Z,54244.72
2023-04-03T09:00:05.188Z,54234.75
2023-04-03T09:02:36.814Z,54236.75
2023-04-03T09:05:14.663Z,54151.25
2023-04-03T09:07:49.939Z,54177.09
2023-04-03T09:10:26.497Z,54151.25
2023-04-03T09:13:03.574Z,54157.22
2023-04-03T09:15:38.939Z,54123.41
2023-04-03T09:18:17.761Z,54123.41
2023-04-03T09:20:53.962Z,54099.56
2023-04-03T09:23:29.095Z,54079.66
2023-04-03T09:26:06.083Z,54059.78
2023-04-03T09:28:49.293Z,54035.91
2023-04-03T09:31:24.770Z,54024.00
2023-04-03T09:33:57.262Z,54016.03
2023-04-03T09:36:40.547Z,53984.22
2023-04-03T09:39:13.793Z,54008.09
2023-04-03T09:41:42.734Z,54012.06
2023-04-03T09:44:26.650Z,53984.22
2023-04-03T09:46:55.098Z,53944.47
2023-04-03T09:49:24.014Z,53958.38
2023-04-03T09:51:52.809Z,53940.47
2023-04-03T09:54:38.688Z,53930.53
2023-04-03T09:57:11.430Z,53926.56
2023-04-03T09:59:47.377Z,53902.69
2023-04-03T10:02:32.363Z,53912.66
2023-04-03T10:05:09.529Z,53876.84
2023-04-03T10:07:41.276Z,53896.75
2023-04-03T10:10:24.087Z,53876.84
2023-04-03T10:13:06.800Z,53884.81
2023-04-03T10:15:42.416Z,53896.75
2023-04-03T10:18:30.625Z,53847.03
2023-04-03T10:21:06.196Z,53856.97
2023-04-03T10:23:44.335Z,53856.97
2023-04-03T10:26:17.709Z,53853.00
2023-04-03T10:28:55.795Z,53864.94
2023-04-03T10:31:30.787Z,53853.00
2023-04-03T10:34:08.143Z,53849.03
2023-04-03T10:36:43.381Z,53821.19
2023-04-03T10:39:26.087Z,53835.09
2023-04-03T10:42:15.186Z,53831.13
2023-04-03T10:45:01.114Z,53807.25
2023-04-03T10:47:39.372Z,53817.22
2023-04-03T10:50:28.101Z,53831.13
2023-04-03T10:53:03.019Z,53813.22
2023-04-03T10:55:38.323Z,53805.28
2023-04-03T10:58:08.575Z,53813.22
2023-04-03T11:00:44.753Z,53795.34
2023-04-03T11:03:18.976Z,53795.34
2023-04-03T11:05:50.744Z,53801.31
2023-04-03T11:08:29.498Z,53781.41
2023-04-03T11:11:00.923Z,53779.44
2023-04-03T11:13:35.943Z,53751.59
2023-04-03T11:16:06.659Z,53781.41
2023-04-03T11:18:43.571Z,53769.50
2023-04-03T11:21:16.988Z,53759.56
2023-04-03T11:23:50.028Z,53739.66
2023-04-03T11:26:23.398Z,53743.66
2023-04-03T11:28:56.456Z,53727.75
2023-04-03T11:31:52.516Z,53815.22
2023-04-03T11:34:35.657Z,53737.69
2023-04-03T11:37:13.155Z,53733.69
2023-04-03T11:39:49.612Z,53737.69
2023-04-03T11:42:25.581Z,53761.53
2023-04-03T11:45:14.663Z,53699.91
2023-04-03T11:47:50.477Z,53739.66
2023-04-03T11:50:51.779Z,53691.94
2023-04-03T11:53:44.923Z,53737.69
2023-04-03T11:56:40.003Z,53731.72
2023-04-03T11:59:25.430Z,53717.78
2023-04-03T12:01:55.969Z,53693.94
2023-04-03T12:04:27.005Z,53721.78
2023-04-03T12:07:03.995Z,53723.75
2023-04-03T12:09:37.338Z,53713.81
2023-04-03T12:12:26.455Z,53717.78
2023-04-03T12:14:55.185Z,53687.97
2023-04-03T12:17:30.538Z,53695.94
2023-04-03T12:19:59.306Z,53662.13
2023-04-03T12:22:29.352Z,53650.19
2023-04-03T12:24:57.875Z,53713.81
2023-04-03T12:27:42.998Z,53680.03
2023-04-03T12:30:25.756Z,53684.00
2023-04-03T12:33:13.185Z,53650.19
2023-04-03T12:35:50.023Z,53646.22
2023-04-03T12:38:56.988Z,53646.22
2023-04-03T12:41:32.651Z,53624.34
2023-04-03T12:44:16.600Z,53624.34
2023-04-03T12:46:47.561Z,53582.59
2023-04-03T12:49:29.012Z,53566.69
2023-04-03T12:51:58.030Z,53562.72
2023-04-03T12:54:33.173Z,53544.81
2023-04-03T12:57:20.317Z,53560.72
2023-04-03T12:59:49.881Z,53538.88
2023-04-03T13:02:25.600Z,53507.06
2023-04-03T13:04:56.392Z,53505.06
2023-04-03T13:07:29.682Z,53483.19
2023-04-03T13:10:03.081Z,53503.06
2023-04-03T13:12:32.998Z,53479.22
2023-04-03T13:15:05.367Z,53461.31
2023-04-03T13:17:35.182Z,53475.25
2023-04-03T13:20:17.145Z,53481.22
2023-04-03T13:22:52.213Z,53483.19
2023-04-03T13:25:23.334Z,53471.28
2023-04-03T13:28:00.417Z,53471.28
2023-04-03T13:30:41.683Z,53463.31
2023-04-03T13:33:24.703Z,53483.19
2023-04-03T13:35:59.305Z,53443.44
2023-04-03T13:38:32.476Z,53415.59
2023-04-03T13:41:03.784Z,53429.53
2023-04-03T13:43:36.040Z,53453.38
2023-04-03T13:46:24.416Z,53467.28
2023-04-03T13:48:54.804Z,53445.44
2023-04-03T13:51:26.320Z,53427.53
2023-04-03T13:53:58.584Z,53429.53
2023-04-03T13:56:32.867Z,53471.28
2023-04-03T13:59:07.973Z,53445.44
2023-04-03T14:01:43.208Z,53477.22
2023-04-03T14:04:18.305Z,53469.28
2023-04-03T14:06:48.076Z,53467.28
2023-04-03T14:09:17.810Z,53475.25
2023-04-03T14:11:47.374Z,53485.19
2023-04-03T14:14:21.017Z,53469.28
2023-04-03T14:16:53.958Z,53475.25
2023-04-03T14:19:26.763Z,53481.22
2023-04-03T14:21:56.905Z,53495.13
2023-04-03T14:24:25.879Z,53491.16
2023-04-03T14:26:57.507Z,53515.00
2023-04-03T14:29:27.353Z,53554.78
2023-04-03T14:32:11.534Z,53526.94
2023-04-03T14:34:42.727Z,53517.00
2023-04-03T14:37:14.138Z,53538.88
2023-04-03T14:39:43.336Z,53550.78
2023-04-03T14:42:15.728Z,53554.78
2023-04-03T14:44:46.366Z,53552.78
2023-04-03T14:47:29.795Z,53574.66
2023-04-03T14:50:01.298Z,53584.59
2023-04-03T14:52:32.610Z,53544.81
2023-04-03T14:55:02.663Z,53580.63
2023-04-03T14:57:34.343Z,53570.69
2023-04-03T15:00:05.875Z,53580.63
2023-04-03T15:02:36.726Z,53582.59
2023-04-03T15:05:08.401Z,53622.38
2023-04-03T15:07:38.695Z,53596.53
2023-04-03T15:10:19.690Z,53580.63
2023-04-03T15:12:49.437Z,53594.53
2023-04-03T15:15:22.053Z,53608.44
2023-04-03T15:17:54.940Z,53598.50
2023-04-03T15:20:25.967Z,53582.59
2023-04-03T15:22:54.707Z,53596.53
2023-04-03T15:25:23.158Z,53582.59
2023-04-03T15:27:51.578Z,53582.59
2023-04-03T15:30:22.574Z,53596.53
2023-04-03T15:32:51.204Z,53604.47
2023-04-03T15:35:19.983Z,53606.47
2023-04-03T15:37:49.231Z,53610.44
2023-04-03T15:40:17.768Z,53594.53
2023-04-03T15:42:46.446Z,53638.28
2023-04-03T15:45:17.448Z,53622.38
2023-04-03T15:47:47.675Z,53630.31
2023-04-03T15:50:16.108Z,53628.31
2023-04-03T15:52:45.176Z,53622.38
2023-04-03T15:55:13.593Z,53620.38
2023-04-03T15:57:42.038Z,53650.19
2023-04-03T16:00:12.321Z,53658.16
2023-04-03T16:02:40.926Z,53664.13
2023-04-03T16:05:12.458Z,53650.19
2023-04-03T16:07:42.006Z,53658.16
2023-04-03T16:10:12.831Z,53626.34
2023-04-03T16:12:41.796Z,53666.09
2023-04-03T16:15:11.219Z,53674.06
2023-04-03T16:17:41.895Z,53638.28
2023-04-03T16:20:14.059Z,53660.13
2023-04-03T16:22:43.059Z,53674.06
2023-04-03T16:25:12.188Z,53666.09
2023-04-03T16:27:40.793Z,53634.28
2023-04-03T16:30:10.595Z,53642.25
2023-04-03T16:32:41.080Z,53662.13
2023-04-03T16:35:12.654Z,53680.03
2023-04-03T16:37:41.607Z,53678.03
2023-04-03T16:40:12.971Z,53682.00
2023-04-03T16:42:41.877Z,53682.00
2023-04-03T16:45:11.236Z,53662.13
2023-04-03T16:47:39.859Z,53658.16
2023-04-03T16:50:09.607Z,53691.94
2023-04-03T16:52:39.683Z,53666.09
2023-04-03T16:55:10.515Z,53662.13
2023-04-03T16:57:38.856Z,53670.09
2023-04-03T17:00:08.351Z,53719.78
2023-04-03T17:02:36.951Z,53703.88
2023-04-03T17:05:06.186Z,53709.84
2023-04-03T17:07:34.732Z,53729.72
2023-04-03T17:10:05.154Z,53721.78
2023-04-03T17:12:33.819Z,53709.84
2023-04-03T17:15:02.323Z,53701.88
2023-04-03T17:17:31.103Z,53693.94
2023-04-03T17:20:00.670Z,53739.66
2023-04-03T17:22:30.193Z,53731.72
2023-04-03T17:24:59.503Z,53753.59
2023-04-03T17:27:29.959Z,53745.63
2023-04-03T17:29:58.756Z,53777.44
2023-04-03T17:32:27.529Z,53751.59
2023-04-03T17:34:56.199Z,53753.59
2023-04-03T17:37:25.720Z,53781.41
2023-04-03T17:39:54.244Z,53785.41
2023-04-03T17:42:22.729Z,53769.50
2023-04-03T17:44:55.841Z,53769.50
2023-04-03T17:47:25.986Z,53781.41
2023-04-03T17:49:54.587Z,53779.44
2023-04-03T17:52:25.625Z,53785.41
2023-04-03T17:54:54.075Z,53789.38
2023-04-03T17:57:22.856Z,53799.31
2023-04-03T17:59:54.083Z,53791.34
2023-04-03T18:02:24.241Z,53801.31
2023-04-03T18:04:53.481Z,53825.16
2023-04-03T18:07:22.106Z,53783.41
2023-04-03T18:09:52.048Z,53801.31
2023-04-03T18:12:23.501Z,53813.22
2023-04-03T18:14:51.981Z,53805.28
2023-04-03T18:17:20.837Z,53801.31
2023-04-03T18:19:51.699Z,53801.31
2023-04-03T18:22:22.695Z,53851.00
2023-04-03T18:24:52.788Z,53854.97
2023-04-03T18:27:22.907Z,53864.94
2023-04-03T18:29:55.737Z,53825.16
2023-04-03T18:32:25.666Z,53849.03
2023-04-03T18:34:57.209Z,53827.16
2023-04-03T18:37:26.495Z,53880.84
2023-04-03T18:39:55.075Z,53849.03
2023-04-03T18:42:26.209Z,53854.97
2023-04-03T18:44:57.888Z,53886.78
2023-04-03T18:47:31.201Z,53854.97
2023-04-03T18:50:01.422Z,53856.97
2023-04-03T18:52:29.859Z,53856.97
2023-04-03T18:54:58.448Z,53858.97
2023-04-03T18:57:27.237Z,53888.78
2023-04-03T18:59:55.892Z,53847.03
2023-04-03T19:02:27.031Z,53884.81
2023-04-03T19:04:56.049Z,53866.91
2023-04-03T19:07:26.240Z,53860.94
2023-04-03T19:09:54.790Z,53864.94
2023-04-03T19:12:23.654Z,53900.72
2023-04-03T19:14:52.136Z,53892.75
2023-04-03T19:17:20.558Z,53914.63
2023-04-03T19:19:49.105Z,53898.72
2023-04-03T19:22:17.679Z,53894.75
2023-04-03T19:24:47.545Z,53920.59
2023-04-03T19:27:16.010Z,53898.72
2023-04-03T19:29:44.513Z,53902.69
2023-04-03T19:32:13.686Z,53924.56
2023-04-03T19:34:42.473Z,53874.88
2023-04-03T19:37:10.993Z,53896.75
2023-04-03T19:39:39.472Z,53902.69
2023-04-03T19:42:09.492Z,53930.53
2023-04-03T19:44:38.535Z,53896.75
2023-04-03T19:47:09.527Z,53914.63
2023-04-03T19:49:38.039Z,53928.56
2023-04-03T19:52:06.805Z,53932.53
2023-04-03T19:54:35.200Z,53944.47
2023-04-03T19:57:03.795Z,53926.56
2023-04-03T19:59:34.036Z,53880.84
2023-04-03T20:02:02.717Z,53934.50
2023-04-03T20:04:31.401Z,53940.47
2023-04-03T20:07:00.006Z,53904.69
2023-04-03T20:09:28.555Z,53916.63
2023-04-03T20:11:58.000Z,53938.50
2023-04-03T20:14:27.436Z,53960.38
2023-04-03T20:16:57.244Z,53948.44
2023-04-03T20:19:27.100Z,53956.38
2023-04-03T20:21:56.289Z,53956.38
2023-04-03T20:24:27.413Z,53966.34
2023-04-03T20:26:57.218Z,53964.34
2023-04-03T20:29:26.072Z,53964.34
2023-04-03T20:31:56.518Z,53944.47
2023-04-03T20:34:25.435Z,53936.50
2023-04-03T20:36:54.187Z,53968.31
2023-04-03T20:39:24.827Z,53942.47
2023-04-03T20:41:53.683Z,53988.19
2023-04-03T20:44:22.368Z,54000.13
2023-04-03T20:46:53.285Z,53964.34
2023-04-03T20:49:53.783Z,53986.22
2023-04-03T20:52:22.655Z,53998.16
2023-04-03T20:54:52.370Z,53984.22
2023-04-03T20:57:20.926Z,54002.13
2023-04-03T20:59:49.319Z,53988.19
2023-04-03T21:02:17.809Z,53984.22
2023-04-03T21:04:51.685Z,53992.19
2023-04-03T21:07:57.678Z,54000.13
2023-04-03T21:11:04.389Z,53986.22
2023-04-03T21:14:10.518Z,54004.09
2023-04-03T21:16:38.863Z,54008.09
2023-04-03T21:19:11.258Z,54020.00
2023-04-03T21:21:40.681Z,54037.91
2023-04-03T21:24:10.255Z,53996.16
2023-04-03T21:26:39.894Z,54035.91
2023-04-03T21:29:08.617Z,53988.19
2023-04-03T21:31:54.552Z,54020.00
2023-04-03T21:34:26.434Z,53996.16
2023-04-03T21:36:55.384Z,54018.03
2023-04-03T21:39:27.267Z,53992.19
2023-04-03T21:41:55.706Z,54014.06
2023-04-03T21:44:24.541Z,53984.22
2023-04-03T21:46:54.982Z,53996.16
2023-04-03T21:49:27.320Z,53982.25
2023-04-03T21:51:56.089Z,54004.09
2023-04-03T21:54:25.972Z,53998.16
2023-04-03T21:56:54.348Z,53994.16
2023-04-03T21:59:23.078Z,54014.06
2023-04-03T22:01:51.697Z,54012.06
2023-04-03T22:04:20.177Z,54047.84
2023-04-03T22:06:53.496Z,54037.91
2023-04-03T22:09:21.948Z,53998.16
2023-04-03T22:11:50.746Z,54014.06
2023-04-03T22:14:19.064Z,54071.72
2023-04-03T22:16:47.689Z,54057.78
2023-04-03T22:19:16.081Z,54041.88
2023-04-03T22:21:44.456Z,54035.91
2023-04-03T22:24:15.036Z,54103.53
2023-04-03T22:26:44.596Z,54125.41
2023-04-03T22:29:14.128Z,54075.69
2023-04-03T22:31:43.583Z,54061.78
2023-04-03T22:34:12.041Z,54085.63
2023-04-03T22:36:43.148Z,54087.63
2023-04-03T22:39:12.410Z,54061.78
2023-04-03T22:41:45.320Z,54091.59
2023-04-03T22:44:14.080Z,54113.47
2023-04-03T22:46:42.509Z,54065.75
2023-04-03T22:49:11.163Z,54109.50
2023-04-03T22:51:39.494Z,54107.50
2023-04-03T22:54:08.091Z,54047.84
2023-04-03T22:56:36.415Z,54115.47
2023-04-03T22:59:06.279Z,54097.56
2023-04-03T23:01:36.125Z,54121.41
2023-04-03T23:04:07.026Z,54119.44
2023-04-03T23:06:35.929Z,54127.38
2023-04-03T23:09:04.425Z,54121.41
2023-04-03T23:11:32.919Z,54111.47
2023-04-03T23:14:03.102Z,54141.31
2023-04-03T23:16:32.895Z,54153.25
2023-04-03T23:19:01.412Z,54135.34
2023-04-03T23:21:30.292Z,54115.47
2023-04-03T23:23:58.672Z,54149.25
2023-04-03T23:26:27.141Z,54133.34
2023-04-03T23:28:55.459Z,54161.19
2023-04-03T23:31:25.944Z,54159.19
2023-04-03T23:33:56.072Z,54167.16
2023-04-03T23:36:24.400Z,54171.13
2023-04-03T23:38:56.809Z,54147.28
2023-04-03T23:41:25.350Z,54163.19
2023-04-03T23:43:54.017Z,54173.13
2023-04-03T23:46:22.509Z,54163.19
2023-04-03T23:48:50.866Z,54187.03
2023-04-03T23:51:20.910Z,54155.22
2023-04-03T23:53:49.369Z,54169.16
2023-04-03T23:56:17.742Z,54187.03
2023-04-03T23:58:46.243Z,54187.03
